»·PEaware :: SWA3 KLAX-KDEN

SWA3 :: KLAX-KDEN

FLIGHT INFORMATION

Flight Status: Arrived
Operator:
Southwest Airlines
More flights by this operator :: More flights under this callsign
Pilot: Maximilliano F. (23467)
Aircraft: BOEING 737-800
(B738)
More flights by this aircraft type
Origin: KLAX Los Angeles Intl
United States
Destination: KDEN Denver Intl
United States
More flights between these airports :: More routes between these airports
Route: +ORCKA3 LAS J146 DVC WOLLF CREDE3
File this flight plan on PilotEdge
Remarks: RMK / SIMBRIEF
Altitude:
(Current/Filed)
35,000ft
Speed:
(Current/Filed)
464kts
Departed: 02-Nov-19 06:08 PM
Arrived: 02-Nov-19 08:01 PM
Distance/Time
Traveled:
747nm/1:53
Distance/Time
To Go:
Arrived

Flight Plot

Page will automatically refresh every two minutes.

Flight plan parsing failed; only flown route is shown


Map Options




Map Legend


Flown Route
Filed Route
Departure Airport
Arrival Airport
Navaid (VOR, NDB)
Fix

Horizontal Profiles

Position Reports

Time Latitude Longitude Heading Altitude Ground
Speed
02-Nov-19 17:40 33.946934 -118.400612 262 121ft 0kts
02-Nov-19 17:41 33.946934 -118.400612 262 121ft 0kts
02-Nov-19 17:42 33.946934 -118.400612 263 121ft 0kts
02-Nov-19 17:43 33.946934 -118.400612 263 121ft 0kts
02-Nov-19 17:44 33.946934 -118.400612 263 121ft 0kts
02-Nov-19 17:45 33.946934 -118.400612 263 121ft 0kts
02-Nov-19 17:46 33.946934 -118.400612 263 121ft 0kts
02-Nov-19 17:47 33.946934 -118.400612 263 121ft 0kts
02-Nov-19 17:48 33.946934 -118.400612 263 121ft 0kts
02-Nov-19 17:49 33.946934 -118.400612 263 121ft 0kts
02-Nov-19 17:50 33.946934 -118.400612 263 121ft 0kts
02-Nov-19 17:51 33.946934 -118.400612 263 121ft 0kts
02-Nov-19 17:52 33.946934 -118.400612 263 121ft 0kts
02-Nov-19 17:53 33.946934 -118.400612 263 121ft 0kts
02-Nov-19 17:54 33.946934 -118.400612 263 121ft 0kts
02-Nov-19 17:55 33.946938 -118.400572 263 121ft 2kts
02-Nov-19 17:56 33.946735 -118.400083 357 121ft 1kts
02-Nov-19 17:57 33.946676 -118.400084 357 121ft 0kts
02-Nov-19 17:58 33.946676 -118.400084 357 121ft 0kts
02-Nov-19 17:59 33.946676 -118.400084 357 121ft 0kts
02-Nov-19 18:00 33.946726 -118.400086 357 121ft 2kts
02-Nov-19 18:01 33.948334 -118.400165 316 119ft 0kts
02-Nov-19 18:02 33.948680 -118.400756 331 120ft 4kts
02-Nov-19 18:03 33.949356 -118.399453 61 118ft 5kts
02-Nov-19 18:04 33.949486 -118.399262 43 117ft 0kts
02-Nov-19 18:05 33.949486 -118.399262 43 117ft 0kts
02-Nov-19 18:06 33.949779 -118.399093 11 117ft 7kts
02-Nov-19 18:07 33.949501 -118.408346 263 127ft 114kts
02-Nov-19 18:08 33.942634 -118.463910 263 1771ft 200kts
02-Nov-19 18:09 33.934409 -118.543512 263 3885ft 263kts
02-Nov-19 18:10 33.906345 -118.619921 196 6767ft 282kts
02-Nov-19 18:11 33.863153 -118.564952 70 9590ft 280kts
02-Nov-19 18:12 33.907831 -118.477749 58 11474ft 325kts
02-Nov-19 18:13 33.958514 -118.387638 57 13996ft 342kts
02-Nov-19 18:14 34.006327 -118.303397 58 16237ft 356kts
02-Nov-19 18:15 34.056366 -118.215092 58 18323ft 370kts
02-Nov-19 18:16 34.115585 -118.110451 58 20578ft 380kts
02-Nov-19 18:17 34.149943 -118.049463 57 21748ft 386kts
02-Nov-19 18:18 34.213411 -117.936718 57 23785ft 396kts
02-Nov-19 18:19 34.276499 -117.824325 57 25456ft 410kts
02-Nov-19 18:20 34.341006 -117.709053 57 26915ft 423kts
02-Nov-19 18:21 34.410784 -117.590989 54 28370ft 435kts
02-Nov-19 18:22 34.482768 -117.470305 54 29747ft 445kts
02-Nov-19 18:23 34.555144 -117.348522 55 31100ft 452kts
02-Nov-19 18:24 34.625041 -117.230539 55 32611ft 450kts
02-Nov-19 18:25 34.697911 -117.107089 55 34047ft 449kts
02-Nov-19 18:26 34.770687 -116.983363 55 35135ft 453kts
02-Nov-19 18:27 34.845011 -116.856592 55 35196ft 460kts
02-Nov-19 18:28 34.918134 -116.731993 51 35185ft 458kts
02-Nov-19 18:29 35.003933 -116.617163 47 35185ft 460kts
02-Nov-19 18:30 35.090998 -116.502381 47 35185ft 459kts
02-Nov-19 18:31 35.162568 -116.407717 47 35181ft 450kts
02-Nov-19 18:32 35.248025 -116.294345 48 35181ft 457kts
02-Nov-19 18:33 35.333218 -116.180936 48 35182ft 453kts
02-Nov-19 18:34 35.418302 -116.067289 48 35163ft 451kts
02-Nov-19 18:35 35.502779 -115.954076 48 35176ft 452kts
02-Nov-19 18:36 35.587710 -115.839877 48 35191ft 451kts
02-Nov-19 18:37 35.671416 -115.725654 49 35192ft 451kts
02-Nov-19 18:38 35.754947 -115.610516 48 35192ft 451kts
02-Nov-19 18:39 35.838427 -115.495350 48 35192ft 452kts
02-Nov-19 18:40 35.922208 -115.379365 48 35181ft 454kts
02-Nov-19 18:42 36.003228 -115.266834 49 35171ft 466kts
02-Nov-19 18:43 36.083256 -115.137825 63 35170ft 477kts
02-Nov-19 18:44 36.133060 -114.987415 69 35171ft 476kts
02-Nov-19 18:45 36.180057 -114.834367 69 35173ft 479kts
02-Nov-19 18:46 36.227350 -114.679677 69 35173ft 481kts
02-Nov-19 18:47 36.274627 -114.524760 69 35174ft 482kts
02-Nov-19 18:48 36.321884 -114.369044 69 35174ft 484kts
02-Nov-19 18:49 36.368979 -114.213050 70 35176ft 483kts
02-Nov-19 18:50 36.415812 -114.057022 70 35228ft 485kts
02-Nov-19 18:51 36.462750 -113.899777 69 35256ft 486kts
02-Nov-19 18:52 36.509366 -113.742733 69 35251ft 486kts
02-Nov-19 18:53 36.555826 -113.585333 69 35241ft 484kts
02-Nov-19 18:54 36.602065 -113.427793 69 35231ft 486kts
02-Nov-19 18:55 36.646931 -113.272107 70 35219ft 486kts
02-Nov-19 18:56 36.692647 -113.113791 70 35222ft 487kts
02-Nov-19 18:57 36.738452 -112.954821 69 35240ft 487kts
02-Nov-19 18:58 36.783978 -112.795854 69 35296ft 488kts
02-Nov-19 18:59 36.829556 -112.635770 69 35304ft 489kts
02-Nov-19 19:00 36.874749 -112.476094 69 35304ft 490kts
02-Nov-19 19:01 36.919168 -112.316314 70 35302ft 489kts
02-Nov-19 19:02 36.964115 -112.155863 70 35299ft 489kts
02-Nov-19 19:03 37.008755 -111.995547 70 35295ft 489kts
02-Nov-19 19:03 37.046274 -111.860028 70 35280ft 494kts
02-Nov-19 19:04 37.090895 -111.697905 69 35276ft 492kts
02-Nov-19 19:05 37.134873 -111.537232 69 35277ft 493kts
02-Nov-19 19:06 37.179151 -111.374378 69 35292ft 494kts
02-Nov-19 19:07 37.222904 -111.212531 70 35301ft 494kts
02-Nov-19 19:08 37.266233 -111.049061 70 35316ft 495kts
02-Nov-19 19:09 37.309894 -110.885319 70 35335ft 495kts
02-Nov-19 19:10 37.353547 -110.720568 70 35339ft 496kts
02-Nov-19 19:11 37.396802 -110.556265 70 35340ft 496kts
02-Nov-19 19:12 37.439905 -110.391480 69 35342ft 497kts
02-Nov-19 19:13 37.482372 -110.228171 70 35337ft 496kts
02-Nov-19 19:14 37.524971 -110.063204 70 35352ft 496kts
02-Nov-19 19:15 37.567556 -109.897202 70 35384ft 498kts
02-Nov-19 19:16 37.609892 -109.731062 70 35384ft 498kts
02-Nov-19 19:17 37.651897 -109.565184 70 35388ft 499kts
02-Nov-19 19:18 37.693830 -109.398411 70 35387ft 500kts
02-Nov-19 19:19 37.735338 -109.232385 71 35383ft 501kts
02-Nov-19 19:20 37.776945 -109.064685 70 35357ft 502kts
02-Nov-19 19:21 37.824321 -108.899246 56 35342ft 498kts
02-Nov-19 19:22 37.897491 -108.750210 55 35344ft 499kts
02-Nov-19 19:23 37.970441 -108.600559 54 35349ft 499kts
02-Nov-19 19:24 38.043079 -108.450927 54 35350ft 498kts
02-Nov-19 19:25 38.113753 -108.304716 55 35345ft 499kts
02-Nov-19 19:26 38.186299 -108.153918 55 35358ft 503kts
02-Nov-19 19:27 38.259019 -108.002066 55 35388ft 502kts
02-Nov-19 19:28 38.331525 -107.849919 55 35375ft 503kts
02-Nov-19 19:29 38.403574 -107.698019 55 35362ft 502kts
02-Nov-19 19:30 38.474888 -107.544517 57 35360ft 504kts
02-Nov-19 19:31 38.544216 -107.388957 56 35361ft 505kts
02-Nov-19 19:32 38.613628 -107.233906 56 35354ft 505kts
02-Nov-19 19:33 38.683284 -107.077473 56 35355ft 506kts
02-Nov-19 19:34 38.752485 -106.921273 56 35371ft 506kts
02-Nov-19 19:35 38.821984 -106.763630 56 35394ft 508kts
02-Nov-19 19:36 38.891843 -106.606727 54 35395ft 507kts
02-Nov-19 19:37 38.962900 -106.453694 54 35357ft 492kts
02-Nov-19 19:38 39.030364 -106.306944 55 34114ft 489kts
02-Nov-19 19:39 39.098900 -106.155438 55 31322ft 486kts
02-Nov-19 19:40 39.162313 -106.012433 55 28987ft 449kts
02-Nov-19 19:41 39.226355 -105.867342 55 26785ft 462kts
02-Nov-19 19:42 39.288039 -105.726875 55 24604ft 440kts
02-Nov-19 19:43 39.346677 -105.592631 54 22508ft 418kts
02-Nov-19 19:44 39.401132 -105.469983 50 21628ft 371kts
02-Nov-19 19:45 39.458582 -105.361461 48 19891ft 361kts
02-Nov-19 19:46 39.514256 -105.255528 49 18256ft 350kts
02-Nov-19 19:47 39.568013 -105.152851 49 17141ft 335kts
02-Nov-19 19:48 39.620428 -105.052562 49 16835ft 333kts
02-Nov-19 19:49 39.671745 -104.954018 50 15298ft 326kts
02-Nov-19 19:50 39.729920 -104.870085 25 13549ft 294kts
02-Nov-19 19:51 39.805471 -104.840886 357 12098ft 293kts
02-Nov-19 19:52 39.882725 -104.839478 356 11142ft 267kts
02-Nov-19 19:53 39.951585 -104.839209 357 10024ft 242kts
02-Nov-19 19:54 40.018082 -104.841508 6 9121ft 227kts
02-Nov-19 19:55 40.037018 -104.777534 94 8037ft 207kts
02-Nov-19 19:56 40.031163 -104.702903 125 7017ft 199kts
02-Nov-19 19:57 39.983713 -104.685569 181 7000ft 182kts
02-Nov-19 19:58 39.935260 -104.686356 182 6134ft 160kts
02-Nov-19 19:59 39.891108 -104.686869 182 5368ft 147kts
02-Nov-19 20:00 39.876006 -104.685444 150 5357ft 0kts
02-Nov-19 20:01 39.874854 -104.683992 132 5355ft 7kts
02-Nov-19 20:02 39.871457 -104.683810 180 5358ft 18kts
02-Nov-19 20:03 39.866980 -104.683866 179 5360ft 14kts
02-Nov-19 20:04 39.862105 -104.683918 180 5372ft 9kts
02-Nov-19 20:05 39.861363 -104.680724 90 5375ft 17kts
02-Nov-19 20:06 39.861828 -104.675552 60 5375ft 11kts
02-Nov-19 20:07 39.862373 -104.674874 30 5375ft 2kts
02-Nov-19 20:08 39.862535 -104.674776 16 5375ft 0kts

Navigation Log

Ident Type
Flight plan parsing failed, navigation log unavailable